Flight Track Log - Related Links

Times and Time Zones

All times are in EDT time to prevent confusion due to time zone crossing. See the SKQ221 flight status page for this flight to view local times or setup timezone preferences in your user account.

Time Position Orientation Groundspeed Altitude Reporting Facility
EDT Latitude Longitude Course Direction KTS MPH feet Rate Location/Type
Tue 01:20:39 AM 40.3275 -81.3169 260° West 179 206 6,000  Level Indianapolis Center
Tue 01:22:00 AM 40.3177 -81.3956 261° West  Level FlightAware Approximate
Tue 01:23:40 AM 40.3011 -81.5136 261° West 179 206 6,000  Level Indianapolis Center
Tue 01:24:40 AM 40.2928 -81.5781 260° West 178 205 6,000  Level Indianapolis Center
Tue 01:25:00 AM 40.4092 -80.7997 260° West  Level FlightAware Approximate
Tue 01:25:40 AM 40.2839 -81.6439 260° West 180 207 6,000  Level Indianapolis Center
Tue 01:26:00 AM 40.4012 -80.8578 260° West  Level FlightAware Approximate
Tue 01:26:40 AM 40.2750 -81.7081 260° West 179 206 6,000  Level Indianapolis Center
Tue 01:27:41 AM 40.2656 -81.7731 259° West 179 206 6,000  Level Indianapolis Center
Tue 01:28:41 AM 40.2572 -81.8386 261° West 180 207 6,000  Level Indianapolis Center
Tue 01:29:41 AM 40.2478 -81.9028 259° West 179 206 6,000  Level Indianapolis Center
Tue 01:30:19 AM 40.2431 -81.9494 262° West 181 208 6,000  Level Indianapolis Center
Tue 01:30:37 AM 40.2419 -81.9711 266° West 181 208 6,000  Level Indianapolis Center
Tue 01:31:38 AM 40.2317 -82.0356 258° West 181 208 6,000  Level Indianapolis Center
Tue 01:32:38 AM 40.2217 -82.1000 259° West 182 209 6,000  Level Indianapolis Center
Tue 01:33:39 AM 40.2136 -82.1647 261° West 181 208 6,000 -198 Level Indianapolis Center
Tue 01:34:39 AM 40.2008 -82.2344 257° West 188 216 5,600 -248 Descending Indianapolis Center
Tue 01:35:40 AM 40.1925 -82.3044 261° West 193 222 5,500 -393 Descending Indianapolis Center
Tue 01:36:41 AM 40.1819 -82.3714 258° West 193 222 4,800 -496 Descending Indianapolis Center
Tue 01:37:41 AM 40.1733 -82.4414 261° West 198 228 4,500 -397 Descending Indianapolis Center
Tue 01:38:42 AM 40.1625 -82.5111 259° West 192 221 4,000 -446 Descending Indianapolis Center
Tue 01:39:42 AM 40.1519 -82.5783 258° West 188 216 3,600 -446 Descending Indianapolis Center
Tue 01:40:43 AM 40.1436 -82.6456 261° West 187 215 3,100 -295 Descending Indianapolis Center
Tue 01:41:44 AM 40.1333 -82.7103 258° West 185 213 3,000 -98 Descending Indianapolis Center
Tue 01:43:00 AM 40.1180 -82.8143 258° West  Level FlightAware Approximate
Tue 01:50:00 AM 40.0667 -83.0667 237° Southwest  Level FlightAware Approximate
Tue 01:51:00 AM 40.0798 -83.0732 237° Southwest  Level Estimated

Login

Don't have an account? Register now (free) for customized features, flight alerts, and more!